Time;durP1;ratioP1;P1;durP2;ratioP2;P2;SDS_P1;SDS_P2;PMS_P1;PMS_P2;Temp;Humidity;BMP_temperature;BMP_pressure;BME280_temperature;BME280_humidity;BME280_pressure;Samples;Min_cycle;Max_cycle;Signal;HPM_P1;HPM_P2
2023/04/02 00:01:01;;;;;;;31.52;20.35;;;205.20;2252.80;;;;;;5038430;28;20036;-83
2023/04/02 00:03:43;;;;;;;30.13;19.38;;;205.10;2252.80;;;;;;5037498;28;20040;-82
2023/04/02 00:06:32;;;;;;;37.70;24.23;;;205.10;2252.80;;;;;;5038205;28;20024;-78
2023/04/02 00:09:20;;;;;;;56.83;31.20;;;205.20;2252.80;;;;;;5038310;28;20025;-81
2023/04/02 00:11:54;;;;;;;52.45;30.40;;;205.20;2252.80;;;;;;5036947;28;20106;-82
2023/04/02 00:14:25;;;;;;;45.88;28.23;;;205.40;2252.80;;;;;;5038086;28;20384;-82
2023/04/02 00:16:52;;;;;;;48.90;29.85;;;205.30;2252.80;;;;;;5037956;28;20033;-85
2023/04/02 00:19:35;;;;;;;51.42;32.50;;;205.40;2252.80;;;;;;5037528;28;20025;-83
2023/04/02 00:22:04;;;;;;;60.63;36.42;;;205.50;2252.80;;;;;;5037667;28;20040;-81
2023/04/02 00:24:32;;;;;;;83.97;49.80;;;205.50;2252.80;;;;;;5037425;28;20112;-79
2023/04/02 00:26:58;;;;;;;84.45;51.78;;;205.30;2252.80;;;;;;5037364;28;20035;-82
2023/04/02 00:29:24;;;;;;;92.63;55.58;;;205.20;2252.80;;;;;;5055600;28;20021;-83
2023/04/02 00:31:52;;;;;;;92.32;57.35;;;205.00;2252.80;;;;;;5037112;28;20150;-80
2023/04/02 00:34:29;;;;;;;102.53;55.60;;;204.90;2252.80;;;;;;5037725;28;20082;-80
2023/04/02 00:36:56;;;;;;;87.57;45.42;;;205.00;2252.80;;;;;;5037686;28;20024;-84
2023/04/02 00:39:25;;;;;;;55.55;31.10;;;205.10;2252.80;;;;;;5037167;28;20036;-87
2023/04/02 00:42:03;;;;;;;31.65;18.95;;;180.00;2252.80;;;;;;5037240;28;20032;-83
2023/04/02 00:44:31;;;;;;;24.52;15.98;;;179.90;2252.80;;;;;;5016631;28;20041;-82
2023/04/02 00:47:06;;;;;;;22.27;14.43;;;180.10;2252.80;;;;;;5016438;28;20025;-79
2023/04/02 00:49:38;;;;;;;23.05;15.10;;;204.90;2252.80;;;;;;5017796;28;20029;-84
2023/04/02 00:52:08;;;;;;;58.45;29.63;;;204.90;2252.80;;;;;;5035004;28;20389;-82
2023/04/02 00:54:55;;;;;;;56.15;31.58;;;205.00;2252.80;;;;;;5033613;28;20033;-81
2023/04/02 00:57:25;;;;;;;44.75;25.67;;;180.10;2252.80;;;;;;5034090;28;20029;-84
2023/04/02 00:59:56;;;;;;;47.72;29.27;;;180.10;2252.80;;;;;;5036607;28;20029;-85
2023/04/02 01:02:26;;;;;;;47.42;29.42;;;179.90;2252.80;;;;;;5036230;28;20128;-78
2023/04/02 01:05:22;;;;;;;57.83;33.10;;;180.10;2252.80;;;;;;5036914;28;20025;-84
2023/04/02 01:08:00;;;;;;;53.17;31.17;;;180.10;2252.80;;;;;;5015552;28;20449;-85
2023/04/02 01:10:44;;;;;;;48.70;25.48;;;204.80;2252.80;;;;;;5036946;28;20080;-81
2023/04/02 01:13:16;;;;;;;39.17;24.60;;;205.00;2252.80;;;;;;5036877;28;20029;-86
2023/04/02 01:16:10;;;;;;;40.47;24.65;;;204.90;2252.80;;;;;;5036579;28;20025;-83
2023/04/02 01:19:08;;;;;;;36.97;22.70;;;205.00;2252.80;;;;;;4991177;28;20037;-78
2023/04/02 01:21:58;;;;;;;54.88;28.40;;;205.10;2252.80;;;;;;4951758;28;20412;-80
2023/04/02 01:24:30;;;;;;;41.10;22.95;;;205.00;2252.80;;;;;;5036691;28;20098;-86
2023/04/02 01:26:57;;;;;;;60.60;35.95;;;205.00;2252.80;;;;;;5036529;28;20021;-84
2023/04/02 01:29:45;;;;;;;59.78;35.80;;;205.10;2252.80;;;;;;5036186;28;20033;-82
2023/04/02 01:32:17;;;;;;;63.35;33.88;;;205.00;2252.80;;;;;;5036261;28;20128;-80
2023/04/02 01:34:46;;;;;;;51.77;30.30;;;205.10;2252.80;;;;;;5036344;28;20021;-83
2023/04/02 01:37:45;;;;;;;42.58;25.85;;;205.00;2252.80;;;;;;5036189;28;20029;-80
2023/04/02 01:40:29;;;;;;;44.67;25.40;;;205.00;2252.80;;;;;;5054295;28;20025;-82
2023/04/02 01:43:04;;;;;;;43.88;27.10;;;204.90;2252.80;;;;;;5036143;28;20033;-79
2023/04/02 01:45:30;;;;;;;33.45;20.15;;;204.80;2252.80;;;;;;5036165;28;20024;-81
2023/04/02 01:47:57;;;;;;;33.58;18.88;;;205.00;2252.80;;;;;;5036136;28;20036;-82
2023/04/02 01:50:44;;;;;;;36.05;21.48;;;204.90;2252.80;;;;;;5035898;28;20460;-80
2023/04/02 01:53:14;;;;;;;30.80;20.05;;;179.80;2252.80;;;;;;5036266;28;20029;-78
2023/04/02 01:55:47;;;;;;;29.77;17.20;;;179.60;2252.80;;;;;;5035755;28;20071;-83
2023/04/02 01:58:18;;;;;;;27.35;18.52;;;179.70;2252.80;;;;;;5036061;28;20047;-79
2023/04/02 02:00:53;;;;;;;26.40;18.05;;;179.90;2252.80;;;;;;5035664;28;20035;-82
2023/04/02 02:03:20;;;;;;;25.83;17.25;;;179.80;2252.80;;;;;;5035782;28;20037;-80
2023/04/02 02:05:46;;;;;;;22.65;14.07;;;179.20;2252.80;;;;;;5054035;28;20033;-81
2023/04/02 02:08:52;;;;;;;19.52;12.48;;;179.20;2252.80;;;;;;5036082;28;20025;-80
2023/04/02 02:11:23;;;;;;;17.58;11.45;;;179.20;2252.80;;;;;;4987203;28;20044;-83
2023/04/02 02:13:58;;;;;;;17.95;12.02;;;179.50;2252.80;;;;;;5035813;28;20025;-78
2023/04/02 02:16:26;;;;;;;16.05;11.27;;;179.60;2252.80;;;;;;5035802;28;20377;-81
2023/04/02 02:19:03;;;;;;;14.63;9.27;;;179.20;2252.80;;;;;;5034661;28;20021;-78
2023/04/02 02:21:43;;;;;;;16.27;10.38;;;179.20;2252.80;;;;;;5035749;28;20084;-82
2023/04/02 02:24:27;;;;;;;25.05;12.63;;;179.40;2252.80;;;;;;5035494;28;20025;-79
2023/04/02 02:27:36;;;;;;;17.92;9.18;;;179.50;2252.80;;;;;;5035886;28;20060;-81
2023/04/02 02:30:10;;;;;;;15.20;9.25;;;154.30;2252.80;;;;;;5035534;28;20025;-80
2023/04/02 02:32:44;;;;;;;14.02;9.48;;;154.40;2252.80;;;;;;5035325;28;20053;-82
2023/04/02 02:35:21;;;;;;;17.45;10.63;;;154.40;2252.80;;;;;;5035622;28;20115;-78
2023/04/02 02:37:56;;;;;;;16.40;9.73;;;154.20;2252.80;;;;;;5053183;28;20021;-83
2023/04/02 02:40:38;;;;;;;14.20;9.60;;;154.50;2252.80;;;;;;5037162;28;20025;-84
2023/04/02 02:43:09;;;;;;;18.15;11.23;;;179.20;2252.80;;;;;;5036777;28;20064;-81
2023/04/02 02:45:37;;;;;;;14.98;8.90;;;154.50;2252.80;;;;;;5035385;28;20491;-83
2023/04/02 02:48:10;;;;;;;11.18;7.95;;;154.40;2252.80;;;;;;5035486;28;20035;-83
2023/04/02 02:50:37;;;;;;;18.60;12.00;;;154.50;2252.80;;;;;;5033609;28;20033;-79
2023/04/02 02:53:15;;;;;;;20.10;11.98;;;154.50;2252.80;;;;;;5035100;28;20027;-82
2023/04/02 02:55:41;;;;;;;22.90;13.75;;;179.30;2252.80;;;;;;5034461;28;20469;-80
2023/04/02 02:58:10;;;;;;;19.20;12.18;;;179.30;2252.80;;;;;;5034133;28;20112;-80
2023/04/02 03:00:38;;;;;;;17.73;12.15;;;179.20;2252.80;;;;;;5034491;28;20017;-78
2023/04/02 03:03:08;;;;;;;17.05;10.10;;;179.20;2252.80;;;;;;5034421;28;20112;-82
2023/04/02 03:05:35;;;;;;;15.50;9.30;;;179.30;2252.80;;;;;;5035163;28;20021;-80
2023/04/02 03:08:03;;;;;;;17.58;10.77;;;154.40;2252.80;;;;;;5035275;28;20526;-79
2023/04/02 03:10:51;;;;;;;18.33;11.35;;;153.90;2252.80;;;;;;5035251;28;20052;-81
2023/04/02 03:13:34;;;;;;;22.33;12.40;;;154.10;2252.80;;;;;;5034998;28;20029;-82
2023/04/02 03:16:21;;;;;;;26.98;15.85;;;154.20;2252.80;;;;;;5035230;28;20087;-84
2023/04/02 03:18:53;;;;;;;13.82;8.68;;;154.10;2252.80;;;;;;5035577;28;20087;-82
2023/04/02 03:21:41;;;;;;;20.45;11.57;;;153.90;2252.80;;;;;;5034756;28;20040;-75
2023/04/02 03:24:21;;;;;;;16.95;9.98;;;154.20;2252.80;;;;;;5035212;28;20472;-80
2023/04/02 03:27:06;;;;;;;23.05;12.55;;;154.40;2252.80;;;;;;5034880;28;20033;-80
2023/04/02 03:29:35;;;;;;;33.67;19.83;;;154.10;2252.80;;;;;;5036552;28;20029;-80
2023/04/02 03:32:19;;;;;;;25.50;16.30;;;154.10;2252.80;;;;;;5035346;28;20099;-80
2023/04/02 03:35:00;;;;;;;22.02;13.98;;;154.20;2252.80;;;;;;5035166;28;20112;-79
2023/04/02 03:37:41;;;;;;;17.67;10.85;;;154.20;2252.80;;;;;;5035503;28;20112;-80
2023/04/02 03:40:19;;;;;;;20.88;12.80;;;154.40;2252.80;;;;;;5035232;28;20036;-80
2023/04/02 03:42:51;;;;;;;17.38;11.15;;;154.40;2252.80;;;;;;5034964;28;20461;-81
2023/04/02 03:45:23;;;;;;;18.48;13.75;;;154.30;2252.80;;;;;;5035256;28;20065;-81
2023/04/02 03:48:02;;;;;;;12.43;10.38;;;154.30;2252.80;;;;;;5034904;28;20124;-79
2023/04/02 03:50:34;;;;;;;16.02;11.40;;;154.10;2252.80;;;;;;5035126;28;20033;-82
2023/04/02 03:53:02;;;;;;;22.40;11.67;;;154.10;2252.80;;;;;;5035196;28;20400;-80
2023/04/02 03:55:40;;;;;;;17.55;11.60;;;154.00;2252.80;;;;;;5034974;28;20112;-81
2023/04/02 03:58:27;;;;;;;20.40;14.10;;;154.10;2252.80;;;;;;5033668;28;20376;-82
2023/04/02 04:00:53;;;;;;;21.55;13.88;;;154.00;2252.80;;;;;;5034516;28;20489;-79
2023/04/02 04:03:43;;;;;;;20.98;14.68;;;153.70;2252.80;;;;;;5033518;28;20041;-80
2023/04/02 04:06:29;;;;;;;19.17;12.25;;;153.90;2252.80;;;;;;5034789;28;20037;-81
2023/04/02 04:09:04;;;;;;;24.55;13.27;;;154.10;2252.80;;;;;;5034627;28;20025;-79
2023/04/02 04:11:34;;;;;;;74.03;37.65;;;154.30;2252.80;;;;;;5034854;28;20473;-77
2023/04/02 04:14:08;;;;;;;51.38;27.30;;;154.30;2252.80;;;;;;5034728;28;20025;-79
2023/04/02 04:16:58;;;;;;;52.72;26.42;;;154.40;2252.80;;;;;;5034350;28;20032;-77
2023/04/02 04:19:32;;;;;;;29.08;17.52;;;154.40;2252.80;;;;;;5034644;28;20447;-79
2023/04/02 04:22:18;;;;;;;18.02;12.65;;;154.10;2252.80;;;;;;5035440;28;20030;-79
2023/04/02 04:24:47;;;;;;;15.15;9.68;;;154.00;2252.80;;;;;;5034227;28;20029;-80
2023/04/02 04:27:17;;;;;;;14.45;9.18;;;154.00;2252.80;;;;;;5033610;28;20043;-78
2023/04/02 04:29:48;;;;;;;16.23;10.48;;;153.80;2252.80;;;;;;5035196;28;20061;-81
2023/04/02 04:32:34;;;;;;;18.45;11.35;;;153.70;2252.80;;;;;;5033023;28;20474;-81
2023/04/02 04:35:28;;;;;;;20.65;12.20;;;128.90;2252.80;;;;;;5035611;28;20029;-81
2023/04/02 04:38:06;;;;;;;25.45;14.55;;;153.60;2252.80;;;;;;5031536;28;20038;-79
2023/04/02 04:40:51;;;;;;;32.40;18.92;;;153.70;2252.80;;;;;;5033552;28;20120;-81
2023/04/02 04:43:38;;;;;;;23.23;13.32;;;128.70;2252.80;;;;;;5034072;28;20120;-77
2023/04/02 04:46:15;;;;;;;21.17;12.60;;;128.60;2252.80;;;;;;5033159;28;20124;-80
2023/04/02 04:49:01;;;;;;;19.35;10.70;;;128.70;2252.80;;;;;;5035282;28;20025;-78
2023/04/02 04:51:43;;;;;;;14.50;10.30;;;128.50;2252.80;;;;;;5032983;28;20418;-79
2023/04/02 04:54:13;;;;;;;20.00;9.97;;;128.50;2252.80;;;;;;5034381;28;20076;-77
2023/04/02 04:56:39;;;;;;;17.58;10.90;;;128.60;2252.80;;;;;;5033684;28;20456;-78
2023/04/02 04:59:40;;;;;;;21.40;12.48;;;128.80;2252.80;;;;;;5033422;28;20022;-79
2023/04/02 05:02:16;;;;;;;22.10;12.68;;;128.80;2252.80;;;;;;5033760;28;20029;-78
2023/04/02 05:04:47;;;;;;;24.80;16.70;;;128.90;2252.80;;;;;;5035051;28;20524;-80
2023/04/02 05:07:25;;;;;;;26.23;14.35;;;153.70;2252.80;;;;;;5033723;28;20060;-83
2023/04/02 05:10:26;;;;;;;23.33;13.98;;;153.60;2252.80;;;;;;5033519;28;20026;-79
2023/04/02 05:13:16;;;;;;;23.67;14.75;;;153.70;2252.80;;;;;;4989767;28;20037;-78
2023/04/02 05:15:54;;;;;;;18.50;12.32;;;128.90;2252.80;;;;;;5033582;28;20373;-82
2023/04/02 05:18:24;;;;;;;16.63;11.25;;;153.60;2252.80;;;;;;5033601;28;20033;-82
2023/04/02 05:20:56;;;;;;;16.88;11.57;;;153.70;2252.80;;;;;;5033809;28;20033;-81
2023/04/02 05:23:30;;;;;;;;;;;153.70;2252.80;;;;;;5044260;28;20030;-80
2023/04/02 05:26:04;;;;;;;15.70;9.95;;;153.60;2252.80;;;;;;5036338;28;19959;-78
2023/04/02 05:28:37;;;;;;;15.50;10.00;;;153.60;2252.80;;;;;;5033273;28;20480;-82
2023/04/02 05:31:11;;;;;;;22.00;12.60;;;153.70;2252.80;;;;;;5033224;28;20385;-81
2023/04/02 05:33:38;;;;;;;24.38;14.15;;;153.70;2252.80;;;;;;5032935;28;20080;-77
2023/04/02 05:36:10;;;;;;;72.88;32.53;;;153.90;2252.80;;;;;;5034512;28;20100;-79
2023/04/02 05:38:42;;;;;;;48.15;25.42;;;153.70;2252.80;;;;;;5033015;28;20049;-77
2023/04/02 05:41:20;;;;;;;44.33;29.25;;;154.00;2252.80;;;;;;5032796;28;20361;-81
2023/04/02 05:43:48;;;;;;;41.67;25.17;;;154.20;2252.80;;;;;;5032959;28;20044;-79
2023/04/02 05:46:17;;;;;;;41.85;32.95;;;154.30;2252.80;;;;;;5032986;28;20022;-84
2023/04/02 05:48:46;;;;;;;26.08;19.30;;;154.20;2252.80;;;;;;5032634;28;20025;-81
2023/04/02 05:51:21;;;;;;;45.15;34.78;;;154.30;2252.80;;;;;;5032877;28;20064;-81
2023/04/02 05:53:59;;;;;;;77.40;57.42;;;154.20;2252.80;;;;;;5033410;28;20025;-80
2023/04/02 05:56:42;;;;;;;29.67;21.77;;;154.20;2252.80;;;;;;5032979;28;20099;-77
2023/04/02 05:59:51;;;;;;;26.55;17.85;;;154.30;2252.80;;;;;;5032824;28;20065;-80
2023/04/02 06:02:35;;;;;;;24.48;18.00;;;154.20;2252.80;;;;;;4956377;28;20547;-81
2023/04/02 06:05:14;;;;;;;21.23;14.85;;;154.40;2252.80;;;;;;4973149;28;20045;-80
2023/04/02 06:08:06;;;;;;;35.30;26.08;;;154.20;2252.80;;;;;;5009490;28;20412;-82
2023/04/02 06:10:53;;;;;;;45.65;34.17;;;154.30;2252.80;;;;;;5031793;28;20033;-79
2023/04/02 06:13:19;;;;;;;26.70;19.65;;;154.50;2252.80;;;;;;5032620;28;20030;-79
2023/04/02 06:15:46;;;;;;;28.58;17.95;;;179.30;2252.80;;;;;;5032223;28;20022;-80
2023/04/02 06:18:21;;;;;;;28.63;18.83;;;179.40;2252.80;;;;;;5032439;28;20022;-77
2023/04/02 06:20:47;;;;;;;31.35;21.98;;;179.60;2252.80;;;;;;5032542;28;20029;-81
2023/04/02 06:23:36;;;;;;;29.85;21.77;;;179.60;2252.80;;;;;;5033600;28;20095;-78
2023/04/02 06:26:18;;;;;;;30.70;19.95;;;179.60;2252.80;;;;;;5032555;28;20381;-79
2023/04/02 06:28:48;;;;;;;21.02;14.95;;;179.70;2252.80;;;;;;5033653;28;20026;-81
2023/04/02 06:31:26;;;;;;;24.42;17.73;;;179.70;2252.80;;;;;;5033014;28;20381;-81
2023/04/02 06:33:53;;;;;;;19.85;15.32;;;179.80;2252.80;;;;;;5035677;28;20029;-78
2023/04/02 06:36:20;;;;;;;18.35;13.43;;;180.10;2252.80;;;;;;5035178;28;20025;-77
2023/04/02 06:38:48;;;;;;;17.10;12.60;;;204.80;2252.80;;;;;;5053095;28;20025;-76
2023/04/02 06:41:20;;;;;;;34.15;22.10;;;204.90;2252.80;;;;;;5053310;28;20460;-81
2023/04/02 06:43:50;;;;;;;34.88;22.38;;;205.00;2252.80;;;;;;5035390;28;20169;-79
2023/04/02 06:46:47;;;;;;;37.28;30.10;;;205.00;2252.80;;;;;;5035422;28;20439;-78
2023/04/02 06:49:45;;;;;;;23.05;18.90;;;205.10;2252.80;;;;;;5035616;28;20025;-79
2023/04/02 06:52:31;;;;;;;23.95;17.60;;;205.20;2252.80;;;;;;5034515;28;20091;-80
2023/04/02 06:54:57;;;;;;;22.98;18.00;;;205.30;2252.80;;;;;;5053399;28;20021;-79
2023/04/02 06:57:23;;;;;;;18.33;14.43;;;205.40;2252.80;;;;;;5035201;28;20171;-80
2023/04/02 06:59:50;;;;;;;16.42;11.68;;;205.60;2252.80;;;;;;5035430;28;20469;-80
2023/04/02 07:02:15;;;;;;;22.02;15.00;;;205.50;2252.80;;;;;;5035291;28;20032;-80
2023/04/02 07:04:41;;;;;;;26.25;16.23;;;205.50;2252.80;;;;;;5036401;28;20032;-81
2023/04/02 07:07:07;;;;;;;25.05;16.65;;;205.50;2252.80;;;;;;5039109;28;20024;-79
2023/04/02 07:09:33;;;;;;;20.30;12.88;;;205.60;2252.80;;;;;;5057221;28;20033;-77
2023/04/02 07:11:58;;;;;;;21.85;12.95;;;205.70;2252.80;;;;;;5038740;28;20140;-82
2023/04/02 07:14:24;;;;;;;27.00;19.50;;;230.40;2252.80;;;;;;5039092;28;20029;-78
2023/04/02 07:16:50;;;;;;;22.60;14.10;;;230.40;2252.80;;;;;;5039033;28;20025;-80
2023/04/02 07:19:21;;;;;;;17.83;12.30;;;230.50;2252.80;;;;;;5038740;28;20116;-80
2023/04/02 07:21:47;;;;;;;23.77;12.93;;;230.60;2252.80;;;;;;5056526;28;20461;-80
2023/04/02 07:24:13;;;;;;;25.60;14.40;;;230.50;2252.80;;;;;;5038811;28;20381;-78
2023/04/02 07:26:40;;;;;;;17.25;11.57;;;230.70;2252.80;;;;;;5038361;28;20029;-78
2023/04/02 07:29:07;;;;;;;17.15;10.45;;;230.70;2252.80;;;;;;5036845;28;20032;-80
2023/04/02 07:31:33;;;;;;;12.18;8.88;;;231.20;2252.80;;;;;;5037467;28;20132;-82
2023/04/02 07:33:59;;;;;;;14.23;10.38;;;230.80;2252.80;;;;;;5038467;28;20060;-79
2023/04/02 07:36:27;;;;;;;25.77;11.30;;;231.20;2252.80;;;;;;5038676;28;20078;-81
2023/04/02 07:38:53;;;;;;;16.02;10.27;;;231.10;2252.80;;;;;;5038228;28;20029;-78
2023/04/02 07:41:19;;;;;;;27.50;19.40;;;231.20;2252.80;;;;;;5038509;28;20060;-79
2023/04/02 07:43:46;;;;;;;23.42;17.83;;;231.30;2252.80;;;;;;5056768;28;20453;-79
2023/04/02 07:46:15;;;;;;;19.52;16.60;;;256.00;2252.80;;;;;;5038247;28;20036;-78
2023/04/02 07:48:41;;;;;;;17.35;11.82;;;256.20;2252.80;;;;;;5038463;28;20048;-77
2023/04/02 07:51:22;;;;;;;14.35;10.20;;;256.40;2252.80;;;;;;5038448;28;20029;-78
2023/04/02 07:53:54;;;;;;;12.85;9.88;;;256.50;2252.80;;;;;;5038012;28;20120;-77
2023/04/02 07:56:21;;;;;;;9.75;7.25;;;256.60;2252.80;;;;;;5038386;28;20114;-82
2023/04/02 07:58:47;;;;;;;10.88;7.35;;;256.70;2252.80;;;;;;5037796;28;20048;-78
2023/04/02 08:01:24;;;;;;;10.23;7.03;;;256.90;2252.80;;;;;;5037870;28;20029;-79
2023/04/02 08:03:54;;;;;;;9.93;6.05;;;281.60;2278.40;;;;;;5037602;28;20100;-82
2023/04/02 08:06:21;;;;;;;11.02;5.40;;;281.60;2278.40;;;;;;5038556;28;20033;-80
2023/04/02 08:08:47;;;;;;;8.93;5.47;;;281.70;2278.40;;;;;;5055855;28;20104;-78
2023/04/02 08:11:12;;;;;;;7.28;5.18;;;281.80;2278.40;;;;;;5038289;28;20053;-81
2023/04/02 08:13:38;;;;;;;7.47;4.63;;;282.00;2278.40;;;;;;5037826;28;20032;-79
2023/04/02 08:16:05;;;;;;;14.57;8.77;;;282.10;2278.40;;;;;;5037970;28;20127;-79
2023/04/02 08:18:32;;;;;;;15.27;8.80;;;282.20;2278.40;;;;;;5037884;28;20055;-78
2023/04/02 08:20:58;;;;;;;16.48;9.18;;;282.40;2278.40;;;;;;5037648;28;20021;-80
2023/04/02 08:23:24;;;;;;;14.25;8.02;;;282.50;2278.40;;;;;;5055289;28;20384;-78
2023/04/02 08:25:50;;;;;;;15.07;10.07;;;307.30;2304.00;;;;;;5055387;28;20358;-81
2023/04/02 08:28:16;;;;;;;21.42;11.55;;;307.30;2304.00;;;;;;5037190;28;20028;-78
2023/04/02 08:30:43;;;;;;;19.38;13.45;;;307.60;2304.00;;;;;;5037531;28;20021;-79
2023/04/02 08:33:08;;;;;;;19.10;13.18;;;307.70;2304.00;;;;;;5037548;28;20400;-81
2023/04/02 08:35:34;;;;;;;18.35;11.00;;;307.80;2304.00;;;;;;5037335;28;20029;-77
2023/04/02 08:38:00;;;;;;;19.70;13.15;;;308.00;2304.00;;;;;;5037646;28;20048;-80
2023/04/02 08:40:35;;;;;;;19.58;14.80;;;308.10;2304.00;;;;;;5055496;28;20465;-81
2023/04/02 08:43:29;;;;;;;16.85;12.65;;;332.90;2329.60;;;;;;5037086;28;20483;-81
2023/04/02 08:46:01;;;;;;;22.27;14.48;;;333.10;2329.60;;;;;;5037509;28;20047;-79
2023/04/02 08:48:30;;;;;;;31.17;19.30;;;333.10;2329.60;;;;;;5037182;28;20021;-79
2023/04/02 08:50:57;;;;;;;25.00;16.48;;;333.30;2329.60;;;;;;5053923;28;20486;-78
2023/04/02 08:53:36;;;;;;;23.52;14.63;;;333.30;2329.60;;;;;;5037201;28;20021;-79
2023/04/02 08:56:34;;;;;;;27.63;19.55;;;333.40;2329.60;;;;;;5054909;28;20029;-79
2023/04/02 08:59:22;;;;;;;19.63;14.55;;;333.50;2329.60;;;;;;5037171;28;20025;-80
2023/04/02 09:02:36;;;;;;;21.80;14.52;;;333.60;2329.60;;;;;;5036205;28;20044;-77
2023/04/02 09:05:06;;;;;;;22.42;14.68;;;333.70;2329.60;;;;;;5055138;28;20040;-80
2023/04/02 09:07:32;;;;;;;35.00;23.75;;;358.40;2329.60;;;;;;5036830;28;20087;-81
2023/04/02 09:09:59;;;;;;;29.55;20.98;;;358.40;2329.60;;;;;;5053146;28;20116;-77
2023/04/02 09:12:28;;;;;;;43.70;33.38;;;358.50;2329.60;;;;;;5054650;28;20063;-79
2023/04/02 09:15:12;;;;;;;44.50;30.23;;;333.70;2329.60;;;;;;5053737;28;20117;-79
2023/04/02 09:17:39;;;;;;;26.27;20.02;;;358.50;2329.60;;;;;;5054391;28;20052;-76
2023/04/02 09:20:18;;;;;;;23.30;16.25;;;358.60;2329.60;;;;;;5036729;28;20477;-80
2023/04/02 09:22:46;;;;;;;23.00;15.73;;;358.70;2329.60;;;;;;5054570;28;20094;-76
2023/04/02 09:25:16;;;;;;;21.15;14.68;;;358.60;2329.60;;;;;;5036357;28;20033;-75
2023/04/02 09:27:49;;;;;;;19.55;14.52;;;358.70;2329.60;;;;;;5054048;28;20025;-74
2023/04/02 09:30:30;;;;;;;19.70;12.98;;;358.80;2329.60;;;;;;5036668;28;20120;-75
2023/04/02 09:33:06;;;;;;;17.95;11.02;;;358.90;2329.60;;;;;;5053875;28;20408;-77
2023/04/02 09:35:52;;;;;;;21.35;15.68;;;359.00;2329.60;;;;;;5054259;28;20021;-75
2023/04/02 09:38:23;;;;;;;18.70;12.85;;;359.10;2329.60;;;;;;5052718;28;20055;-76
2023/04/02 09:40:55;;;;;;;12.97;9.27;;;359.20;2329.60;;;;;;5054520;28;20380;-75
2023/04/02 09:43:27;;;;;;;13.95;9.75;;;359.30;2329.60;;;;;;5040395;28;20121;-80
2023/04/02 09:46:05;;;;;;;12.25;8.20;;;359.30;2329.60;;;;;;5034301;28;20039;-77
2023/04/02 09:48:34;;;;;;;10.82;7.60;;;359.30;2329.60;;;;;;5032893;28;20025;-75
2023/04/02 09:51:28;;;;;;;11.88;8.93;;;359.30;2329.60;;;;;;5033075;28;20052;-80
2023/04/02 09:54:06;;;;;;;24.50;15.60;;;384.00;2329.60;;;;;;5033385;28;20032;-82
2023/04/02 09:56:34;;;;;;;18.77;12.25;;;384.20;2329.60;;;;;;5020415;28;20021;-78
2023/04/02 09:59:14;;;;;;;19.13;12.00;;;384.30;2329.60;;;;;;5029553;28;20116;-76
2023/04/02 10:01:47;;;;;;;15.45;9.82;;;384.40;2329.60;;;;;;5037083;28;20025;-81
2023/04/02 10:04:43;;;;;;;16.20;10.25;;;384.60;2329.60;;;;;;5046246;28;20030;-80
2023/04/02 10:07:40;;;;;;;32.85;20.35;;;384.60;2304.00;;;;;;5031040;28;20025;-83
2023/04/02 10:10:23;;;;;;;10.32;6.28;;;384.70;2304.00;;;;;;5022723;28;20024;-83
2023/04/02 10:13:17;;;;;;;21.35;13.48;;;384.90;2252.80;;;;;;5038925;28;20119;-80
2023/04/02 10:16:47;;;;;;;7.65;4.53;;;384.90;2201.60;;;;;;5038428;28;20029;-82
2023/04/02 10:19:26;;;;;;;21.23;13.15;;;409.70;2227.20;;;;;;4971376;28;20034;-81
2023/04/02 10:21:54;;;;;;;15.77;9.52;;;409.80;2176.00;;;;;;4992007;28;20434;-81
2023/04/02 10:24:20;;;;;;;14.95;9.55;;;409.90;2150.40;;;;;;5031270;28;20045;-80
2023/04/02 10:26:55;;;;;;;34.78;20.95;;;409.90;2150.40;;;;;;5035430;28;20074;-81
2023/04/02 10:29:30;;;;;;;22.65;15.57;;;410.00;2124.80;;;;;;5036375;28;20124;-81
2023/04/02 10:32:22;;;;;;;23.27;12.93;;;410.20;2099.20;;;;;;5035937;28;20056;-82
2023/04/02 10:35:12;;;;;;;15.13;9.50;;;410.20;2099.20;;;;;;5044504;28;20508;-78
2023/04/02 10:37:44;;;;;;;9.75;6.15;;;410.20;2124.80;;;;;;5055939;28;20032;-82
2023/04/02 10:40:19;;;;;;;8.90;5.07;;;410.20;2048.00;;;;;;5040656;28;20017;-82
2023/04/02 10:42:55;;;;;;;9.07;6.13;;;410.40;2124.80;;;;;;5036638;28;20041;-81
2023/04/02 10:45:50;;;;;;;9.80;6.85;;;410.40;2073.60;;;;;;5046670;28;20028;-81
2023/04/02 10:48:31;;;;;;;15.20;7.90;;;410.40;2048.00;;;;;;5030586;28;20119;-84
2023/04/02 10:51:26;;;;;;;10.70;7.00;;;410.30;2048.00;;;;;;5026337;28;20021;-81
2023/04/02 10:54:05;;;;;;;8.20;5.40;;;410.30;2073.60;;;;;;5019916;28;20041;-86
2023/04/02 10:56:31;;;;;;;8.60;3.97;;;410.40;2048.00;;;;;;5028692;28;20029;-79
2023/04/02 10:59:26;;;;;;;8.77;5.20;;;435.20;2073.60;;;;;;5039387;28;20032;-82
2023/04/02 11:01:55;;;;;;;11.00;6.10;;;435.30;2048.00;;;;;;5037139;28;20043;-84
2023/04/02 11:04:32;;;;;;;9.23;5.68;;;435.50;2022.40;;;;;;5031106;28;20116;-82
2023/04/02 11:07:06;;;;;;;8.65;5.88;;;435.50;2150.40;;;;;;5019495;28;20021;-82
2023/04/02 11:09:39;;;;;;;9.10;5.60;;;435.50;2073.60;;;;;;5035608;28;20381;-79
2023/04/02 11:12:07;;;;;;;7.00;4.03;;;435.60;1996.80;;;;;;5042860;28;20052;-80
2023/04/02 11:14:33;;;;;;;7.93;4.45;;;435.80;1996.80;;;;;;5029374;28;20036;-82
2023/04/02 11:17:03;;;;;;;6.50;4.13;;;435.80;1945.60;;;;;;5031993;28;20021;-79
2023/04/02 11:19:32;;;;;;;10.38;7.40;;;435.80;1945.60;;;;;;5037735;28;20486;-82
2023/04/02 11:22:00;;;;;;;11.82;6.93;;;435.90;1996.80;;;;;;5041370;28;20027;-78
2023/04/02 11:24:32;;;;;;;5.68;3.80;;;436.00;1971.20;;;;;;5030477;28;20029;-81
2023/04/02 11:27:19;;;;;;;13.20;7.45;;;436.10;1996.80;;;;;;5031755;28;20052;-80
2023/04/02 11:30:03;;;;;;;13.57;8.70;;;460.90;1971.20;;;;;;5053414;28;20022;-80
2023/04/02 11:32:49;;;;;;;10.02;5.38;;;460.90;1971.20;;;;;;5027430;28;20049;-82
2023/04/02 11:35:30;;;;;;;5.90;3.65;;;461.10;1945.60;;;;;;5023109;28;20033;-78
2023/04/02 11:38:10;;;;;;;4.30;2.33;;;461.20;1996.80;;;;;;5023769;28;20017;-80
2023/04/02 11:40:55;;;;;;;7.38;4.05;;;461.10;1945.60;;;;;;5038294;28;20070;-81
2023/04/02 11:43:34;;;;;;;4.35;2.50;;;461.20;1971.20;;;;;;5022730;28;20099;-81
2023/04/02 11:46:08;;;;;;;14.75;7.93;;;461.40;1945.60;;;;;;5024454;28;20059;-81
2023/04/02 11:48:35;;;;;;;8.55;5.82;;;461.40;1920.00;;;;;;5038143;28;20396;-81
2023/04/02 11:51:21;;;;;;;5.88;4.25;;;486.40;1971.20;;;;;;5024333;28;20029;-83
2023/04/02 11:53:48;;;;;;;9.40;4.80;;;486.80;1894.40;;;;;;5031117;28;20033;-84
2023/04/02 11:56:14;;;;;;;9.93;7.50;;;487.10;1894.40;;;;;;5038510;28;20132;-84
2023/04/02 11:58:49;;;;;;;6.45;4.75;;;487.20;1868.80;;;;;;5039130;28;20571;-81
2023/04/02 12:01:33;;;;;;;7.53;5.53;;;487.30;1843.20;;;;;;5037254;28;20645;-82
2023/04/02 12:04:11;;;;;;;5.53;3.55;;;487.00;1868.80;;;;;;5039096;28;20036;-84
2023/04/02 12:06:38;;;;;;;6.75;5.45;;;486.70;1843.20;;;;;;5056548;28;20025;-84
2023/04/02 12:09:22;;;;;;;9.30;5.85;;;486.60;1894.40;;;;;;5025696;28;20022;-83
2023/04/02 12:11:49;;;;;;;7.60;5.70;;;486.60;1868.80;;;;;;5057272;28;20114;-80
2023/04/02 12:14:34;;;;;;;5.93;3.88;;;486.40;1868.80;;;;;;5031060;28;20026;-79
2023/04/02 12:17:01;;;;;;;9.15;5.78;;;461.70;1868.80;;;;;;5049140;28;20108;-81
2023/04/02 12:19:29;;;;;;;10.25;5.80;;;486.70;1868.80;;;;;;5037305;28;20025;-82
2023/04/02 12:21:56;;;;;;;10.35;7.03;;;487.10;1894.40;;;;;;5022387;28;20108;-83
2023/04/02 12:24:23;;;;;;;7.82;4.60;;;512.20;1843.20;;;;;;5029660;28;20037;-83
2023/04/02 12:27:26;;;;;;;10.05;5.47;;;512.40;1817.60;;;;;;5018418;28;20053;-82
2023/04/02 12:30:10;;;;;;;;;;;512.20;1792.00;;;;;;5018320;28;20028;-84
2023/04/02 12:32:36;;;;;;;9.13;5.15;;;487.20;1817.60;;;;;;5018055;28;19917;-85
2023/04/02 12:35:03;;;;;;;6.75;3.65;;;487.30;1843.20;;;;;;5018344;28;20032;-84
2023/04/02 12:37:30;;;;;;;10.50;7.50;;;487.00;1817.60;;;;;;5017549;28;20025;-83
2023/04/02 12:40:00;;;;;;;7.53;4.80;;;487.10;1817.60;;;;;;5037572;28;20496;-84
2023/04/02 12:42:36;;;;;;;7.63;3.50;;;487.10;1817.60;;;;;;5033431;28;20439;-82
2023/04/02 12:45:05;;;;;;;8.70;4.38;;;487.20;1868.80;;;;;;5038371;28;20464;-83